createdAt,value
2022-09-24T00:00:36.282Z,17.34
2022-09-24T00:03:09.743Z,17.29
2022-09-24T00:05:43.041Z,17.27
2022-09-24T00:08:18.614Z,17.25
2022-09-24T00:10:51.464Z,17.22
2022-09-24T00:13:24.380Z,17.19
2022-09-24T00:15:57.452Z,17.16
2022-09-24T00:18:30.745Z,17.15
2022-09-24T00:21:13.270Z,17.15
2022-09-24T00:23:50.859Z,17.12
2022-09-24T00:26:42.185Z,17.10
2022-09-24T00:29:18.703Z,17.11
2022-09-24T00:31:53.262Z,17.13
2022-09-24T00:34:26.293Z,17.14
2022-09-24T00:36:59.175Z,17.16
2022-09-24T00:39:33.346Z,17.20
2022-09-24T00:42:06.387Z,17.22
2022-09-24T00:44:56.012Z,17.27
2022-09-24T00:47:35.833Z,17.29
2022-09-24T00:50:15.881Z,17.33
2022-09-24T00:52:53.153Z,17.37
2022-09-24T00:55:28.643Z,17.42
2022-09-24T00:58:06.218Z,17.43
2022-09-24T01:00:43.378Z,17.46
2022-09-24T01:03:20.282Z,17.50
2022-09-24T01:05:53.689Z,17.52
2022-09-24T01:08:26.656Z,17.56
2022-09-24T01:11:15.701Z,17.61
2022-09-24T01:14:27.135Z,17.63
2022-09-24T01:17:14.688Z,17.67
2022-09-24T01:20:27.967Z,17.68
2022-09-24T01:23:17.188Z,17.63
2022-09-24T01:26:03.185Z,17.60
2022-09-24T01:28:52.612Z,17.54
2022-09-24T01:31:31.733Z,17.49
2022-09-24T01:34:08.405Z,17.42
2022-09-24T01:36:43.680Z,17.35
2022-09-24T01:39:18.130Z,17.28
2022-09-24T01:41:53.867Z,17.26
2022-09-24T01:44:27.471Z,17.19
2022-09-24T01:47:02.090Z,17.18
2022-09-24T01:49:35.225Z,17.15
2022-09-24T01:52:14.614Z,17.15
2022-09-24T01:54:51.997Z,17.12
2022-09-24T01:57:30.301Z,17.08
2022-09-24T02:00:09.820Z,17.06
2022-09-24T02:02:57.864Z,17.04
2022-09-24T02:05:34.618Z,17.04
2022-09-24T02:08:11.089Z,17.03
2022-09-24T02:10:47.961Z,17.03
2022-09-24T02:13:26.467Z,17.02
2022-09-24T02:16:03.664Z,17.01
2022-09-24T02:18:41.768Z,17.02
2022-09-24T02:21:18.045Z,17.01
2022-09-24T02:23:56.449Z,17.01
2022-09-24T02:26:30.566Z,17.00
2022-09-24T02:29:04.156Z,17.00
2022-09-24T02:31:40.380Z,17.01
2022-09-24T02:34:25.940Z,17.02
2022-09-24T02:37:02.592Z,17.00
2022-09-24T02:39:36.388Z,16.97
2022-09-24T02:42:11.190Z,16.96
2022-09-24T02:44:44.102Z,16.96
2022-09-24T02:47:17.051Z,16.95
2022-09-24T02:49:55.467Z,16.93
2022-09-24T02:52:28.554Z,16.93
2022-09-24T02:55:01.532Z,16.91
2022-09-24T02:57:34.513Z,16.91
2022-09-24T03:00:08.794Z,16.89
2022-09-24T03:02:41.892Z,16.87
2022-09-24T03:05:18.174Z,16.88
2022-09-24T03:07:51.882Z,16.86
2022-09-24T03:10:25.136Z,16.84
2022-09-24T03:12:58.257Z,16.84
2022-09-24T03:15:31.629Z,16.83
2022-09-24T03:18:04.632Z,16.81
2022-09-24T03:20:38.935Z,16.81
2022-09-24T03:23:12.588Z,16.79
2022-09-24T03:25:46.794Z,16.77
2022-09-24T03:28:19.988Z,16.79
2022-09-24T03:31:00.974Z,16.78
2022-09-24T03:33:36.217Z,16.78
2022-09-24T03:36:13.097Z,16.79
2022-09-24T03:38:47.917Z,16.78
2022-09-24T03:41:21.149Z,16.78
2022-09-24T03:43:54.246Z,16.79
2022-09-24T03:46:28.895Z,16.80
2022-09-24T03:49:03.831Z,16.79
2022-09-24T03:51:38.418Z,16.81
2022-09-24T03:54:11.805Z,16.82
2022-09-24T03:56:45.760Z,16.85
2022-09-24T03:59:19.060Z,16.84
2022-09-24T04:01:52.243Z,16.84
2022-09-24T04:04:25.975Z,16.83
2022-09-24T04:07:00.647Z,16.88
2022-09-24T04:09:33.721Z,16.87
2022-09-24T04:12:07.056Z,16.89
2022-09-24T04:14:40.550Z,16.87
2022-09-24T04:17:14.639Z,16.88
2022-09-24T04:19:48.146Z,16.89
2022-09-24T04:22:22.810Z,16.91
2022-09-24T04:24:56.349Z,16.90
2022-09-24T04:27:33.058Z,16.92
2022-09-24T04:30:06.682Z,16.92
2022-09-24T04:32:41.525Z,16.92
2022-09-24T04:35:14.886Z,16.93
2022-09-24T04:37:50.024Z,16.94
2022-09-24T04:40:23.043Z,16.93
2022-09-24T04:42:55.990Z,16.93
2022-09-24T04:45:29.048Z,16.94
2022-09-24T04:48:02.445Z,16.93
2022-09-24T04:50:35.879Z,16.93
2022-09-24T04:53:10.216Z,16.93
2022-09-24T04:55:43.747Z,16.94
2022-09-24T04:58:17.383Z,16.95
2022-09-24T05:00:51.375Z,16.93
2022-09-24T05:03:24.541Z,16.93
2022-09-24T05:05:57.444Z,16.91
2022-09-24T05:08:31.725Z,16.92
2022-09-24T05:11:04.529Z,16.91
2022-09-24T05:13:37.875Z,16.89
2022-09-24T05:16:10.889Z,16.90
2022-09-24T05:18:44.164Z,16.90
2022-09-24T05:21:18.290Z,16.87
2022-09-24T05:23:53.466Z,16.89
2022-09-24T05:26:45.313Z,16.87
2022-09-24T05:29:18.458Z,16.86
2022-09-24T05:31:51.443Z,16.87
2022-09-24T05:34:24.682Z,16.85
2022-09-24T05:36:58.253Z,16.85
2022-09-24T05:39:34.142Z,16.85
2022-09-24T05:42:08.706Z,16.84
2022-09-24T05:44:43.023Z,16.86
2022-09-24T05:47:16.391Z,16.85
2022-09-24T05:49:49.771Z,16.87
2022-09-24T05:52:23.254Z,16.87
2022-09-24T05:54:58.065Z,16.90
2022-09-24T05:57:30.996Z,16.87
2022-09-24T06:00:04.712Z,16.87
2022-09-24T06:02:37.855Z,16.87
2022-09-24T06:05:11.999Z,16.89
2022-09-24T06:07:47.081Z,16.90
2022-09-24T06:10:23.078Z,16.91
2022-09-24T06:12:56.726Z,16.90
2022-09-24T06:15:29.832Z,16.91
2022-09-24T06:18:03.195Z,16.93
2022-09-24T06:20:36.609Z,16.93
2022-09-24T06:23:09.720Z,16.95
2022-09-24T06:25:48.528Z,16.99
2022-09-24T06:28:22.526Z,17.00
2022-09-24T06:30:55.616Z,17.02
2022-09-24T06:33:28.759Z,17.03
2022-09-24T06:36:03.154Z,17.05
2022-09-24T06:38:36.571Z,17.07
2022-09-24T06:41:12.849Z,17.11
2022-09-24T06:43:46.071Z,17.11
2022-09-24T06:46:19.126Z,17.12
2022-09-24T06:48:52.159Z,17.17
2022-09-24T06:51:25.283Z,17.20
2022-09-24T06:53:58.254Z,17.23
2022-09-24T06:56:32.712Z,17.26
2022-09-24T06:59:07.089Z,17.29
2022-09-24T07:01:40.393Z,17.33
2022-09-24T07:04:13.718Z,17.34
2022-09-24T07:07:05.324Z,17.42
2022-09-24T07:09:41.555Z,17.45
2022-09-24T07:12:17.887Z,17.52
2022-09-24T07:14:51.198Z,17.59
2022-09-24T07:17:27.847Z,17.65
2022-09-24T07:20:05.614Z,17.69
2022-09-24T07:22:43.211Z,17.76
2022-09-24T07:25:16.853Z,17.77
2022-09-24T07:27:51.659Z,17.82
2022-09-24T07:30:25.423Z,17.83
2022-09-24T07:33:00.035Z,17.85
2022-09-24T07:35:33.791Z,17.88
2022-09-24T07:38:08.628Z,17.90
2022-09-24T07:40:42.755Z,17.93
2022-09-24T07:43:17.855Z,17.93
2022-09-24T07:45:50.942Z,17.95
2022-09-24T07:48:24.830Z,17.93
2022-09-24T07:50:57.883Z,17.93
2022-09-24T07:53:31.566Z,17.92
2022-09-24T07:56:05.200Z,17.93
2022-09-24T07:58:39.641Z,17.92
2022-09-24T08:01:12.984Z,17.93
2022-09-24T08:03:47.319Z,17.92
2022-09-24T08:06:21.852Z,17.93
2022-09-24T08:08:56.224Z,17.94
2022-09-24T08:11:30.194Z,17.94
2022-09-24T08:14:05.034Z,17.95
2022-09-24T08:16:39.695Z,17.95
2022-09-24T08:19:14.326Z,18.01
2022-09-24T08:21:48.667Z,18.03
2022-09-24T08:24:22.096Z,18.06
2022-09-24T08:26:55.362Z,18.10
2022-09-24T08:29:30.104Z,18.14
2022-09-24T08:32:03.310Z,18.16
2022-09-24T08:34:38.614Z,18.18
2022-09-24T08:37:13.956Z,18.20
2022-09-24T08:39:46.971Z,18.23
2022-09-24T08:42:32.934Z,18.27
2022-09-24T08:45:28.991Z,18.28
2022-09-24T08:48:10.841Z,18.30
2022-09-24T08:50:47.487Z,18.29
2022-09-24T08:53:26.925Z,18.31
2022-09-24T08:56:01.692Z,18.34
2022-09-24T08:58:44.460Z,18.36
2022-09-24T09:01:31.923Z,18.37
2022-09-24T09:04:26.698Z,18.36
2022-09-24T09:07:15.966Z,18.38
2022-09-24T09:09:54.832Z,18.40
2022-09-24T09:12:36.202Z,18.45
2022-09-24T09:15:16.012Z,18.45
2022-09-24T09:17:54.219Z,18.46
2022-09-24T09:20:32.446Z,18.49
2022-09-24T09:23:13.946Z,18.51
2022-09-24T09:25:51.364Z,18.53
2022-09-24T09:28:27.006Z,18.55
2022-09-24T09:31:08.509Z,18.59
2022-09-24T09:33:54.072Z,18.62
2022-09-24T09:36:42.850Z,18.70
2022-09-24T09:39:31.863Z,18.78
2022-09-24T09:42:16.420Z,18.82
2022-09-24T09:44:49.848Z,18.85
2022-09-24T09:47:34.089Z,18.94
2022-09-24T09:50:21.184Z,18.98
2022-09-24T09:52:57.334Z,19.01
2022-09-24T09:55:35.911Z,19.05
2022-09-24T09:58:19.836Z,19.07
2022-09-24T10:00:54.317Z,19.09
2022-09-24T10:03:30.320Z,19.12
2022-09-24T10:06:07.730Z,19.16
2022-09-24T10:08:41.248Z,19.18
2022-09-24T10:11:17.823Z,19.22
2022-09-24T10:14:03.166Z,19.26
2022-09-24T10:16:39.682Z,19.27
2022-09-24T10:19:18.458Z,19.29
2022-09-24T10:21:57.212Z,19.30
2022-09-24T10:24:30.921Z,19.30
2022-09-24T10:27:12.921Z,19.34
2022-09-24T10:30:06.254Z,19.34
2022-09-24T10:32:40.766Z,19.38
2022-09-24T10:35:30.015Z,19.45
2022-09-24T10:38:23.049Z,19.52
2022-09-24T10:40:56.143Z,19.55
2022-09-24T10:43:29.519Z,19.63
2022-09-24T10:46:18.299Z,19.71
2022-09-24T10:49:00.635Z,19.78
2022-09-24T10:51:41.018Z,19.82
2022-09-24T10:54:32.650Z,19.86
2022-09-24T10:57:13.354Z,19.85
2022-09-24T10:59:58.046Z,19.88
2022-09-24T11:03:03.170Z,19.90
2022-09-24T11:05:43.176Z,19.93
2022-09-24T11:08:31.104Z,19.95
2022-09-24T11:11:32.415Z,20.06
2022-09-24T11:14:22.515Z,20.10
2022-09-24T11:17:13.432Z,20.17
2022-09-24T11:20:05.875Z,20.23
2022-09-24T11:22:57.548Z,20.32
2022-09-24T11:25:38.441Z,20.41
2022-09-24T11:28:31.217Z,20.48
2022-09-24T11:31:13.827Z,20.52
2022-09-24T11:34:07.366Z,20.57
2022-09-24T11:36:54.057Z,20.64
2022-09-24T11:39:40.481Z,20.70
2022-09-24T11:42:26.053Z,20.76
2022-09-24T11:45:27.300Z,20.82
2022-09-24T11:48:22.462Z,20.85
2022-09-24T11:51:08.682Z,20.89
2022-09-24T11:53:46.221Z,20.93
2022-09-24T11:56:24.802Z,21.00
2022-09-24T11:59:04.180Z,21.08
2022-09-24T12:01:41.158Z,21.17
2022-09-24T12:04:21.704Z,21.29
2022-09-24T12:07:04.516Z,21.39
2022-09-24T12:09:43.707Z,21.50
2022-09-24T12:12:22.955Z,21.61
2022-09-24T12:15:01.741Z,21.70
2022-09-24T12:17:42.550Z,21.78
2022-09-24T12:20:20.556Z,21.83
2022-09-24T12:23:00.226Z,21.87
2022-09-24T12:25:39.350Z,21.89
2022-09-24T12:28:14.977Z,21.90
2022-09-24T12:31:12.301Z,21.92
2022-09-24T12:33:54.378Z,21.90
2022-09-24T12:36:34.886Z,21.88
2022-09-24T12:39:12.092Z,21.93
2022-09-24T12:41:48.609Z,21.92
2022-09-24T12:44:27.044Z,21.91
2022-09-24T12:47:01.739Z,21.86
2022-09-24T12:49:38.500Z,21.80
2022-09-24T12:52:19.299Z,21.75
2022-09-24T12:54:59.681Z,21.69
2022-09-24T12:57:37.116Z,21.64
2022-09-24T13:00:36.133Z,21.56
2022-09-24T13:03:34.122Z,21.51
2022-09-24T13:06:23.183Z,21.46
2022-09-24T13:08:56.255Z,21.39
2022-09-24T13:11:32.185Z,21.38
2022-09-24T13:14:21.739Z,21.37
2022-09-24T13:16:57.855Z,21.36
2022-09-24T13:19:36.972Z,21.38
2022-09-24T13:22:23.934Z,21.38
2022-09-24T13:25:19.954Z,21.41
2022-09-24T13:28:04.336Z,21.42
2022-09-24T13:30:41.579Z,21.42
2022-09-24T13:33:24.094Z,21.44
2022-09-24T13:36:07.447Z,21.46
2022-09-24T13:38:49.649Z,21.47
2022-09-24T13:41:33.533Z,21.46
2022-09-24T13:44:14.903Z,21.48
2022-09-24T13:46:51.394Z,21.50
2022-09-24T13:49:26.232Z,21.53
2022-09-24T13:52:09.368Z,21.60
2022-09-24T13:54:52.209Z,21.67
2022-09-24T13:57:27.218Z,21.71
2022-09-24T14:00:06.762Z,21.76
2022-09-24T14:02:40.514Z,21.78
2022-09-24T14:05:18.684Z,21.85
2022-09-24T14:07:58.967Z,21.86
2022-09-24T14:10:36.030Z,21.89
2022-09-24T14:13:21.807Z,21.91
2022-09-24T14:15:57.325Z,21.89
2022-09-24T14:18:30.951Z,21.87
2022-09-24T14:21:10.370Z,21.87
2022-09-24T14:23:48.409Z,21.87
2022-09-24T14:26:31.350Z,21.87
2022-09-24T14:29:10.167Z,21.85
2022-09-24T14:31:46.191Z,21.87
2022-09-24T14:34:30.373Z,21.92
2022-09-24T14:37:10.615Z,21.93
2022-09-24T14:39:46.312Z,21.92
2022-09-24T14:42:25.233Z,21.92
2022-09-24T14:44:58.227Z,21.87
2022-09-24T14:47:32.999Z,21.84
2022-09-24T14:50:21.258Z,21.82
2022-09-24T14:52:57.785Z,21.82
2022-09-24T14:55:39.548Z,21.79
2022-09-24T14:58:26.985Z,21.78
2022-09-24T15:01:02.030Z,21.75
2022-09-24T15:03:41.179Z,21.74
2022-09-24T15:06:19.936Z,21.71
2022-09-24T15:08:57.430Z,21.71
2022-09-24T15:11:32.827Z,21.69
2022-09-24T15:14:25.155Z,21.71
2022-09-24T15:17:10.606Z,21.73
2022-09-24T15:19:44.159Z,21.74
2022-09-24T15:22:16.960Z,21.74
2022-09-24T15:24:51.089Z,21.75
2022-09-24T15:27:27.208Z,21.73
2022-09-24T15:30:04.757Z,21.73
2022-09-24T15:32:37.950Z,21.69
2022-09-24T15:35:15.082Z,21.68
2022-09-24T15:37:48.693Z,21.64
2022-09-24T15:40:23.564Z,21.64
2022-09-24T15:42:56.587Z,21.61
2022-09-24T15:45:31.014Z,21.61
2022-09-24T15:48:03.914Z,21.58
2022-09-24T15:50:39.821Z,21.55
2022-09-24T15:53:19.873Z,21.49
2022-09-24T15:55:55.142Z,21.43
2022-09-24T15:58:28.504Z,21.39
2022-09-24T16:01:02.882Z,21.34
2022-09-24T16:03:35.666Z,21.26
2022-09-24T16:06:12.192Z,21.19
2022-09-24T16:08:44.994Z,21.12
2022-09-24T16:11:17.786Z,21.03
2022-09-24T16:13:51.330Z,20.95
2022-09-24T16:16:25.540Z,20.85
2022-09-24T16:18:58.670Z,20.76
2022-09-24T16:21:31.445Z,20.64
2022-09-24T16:24:04.380Z,20.55
2022-09-24T16:26:37.450Z,20.45
2022-09-24T16:29:12.118Z,20.34
2022-09-24T16:31:46.917Z,20.26
2022-09-24T16:34:19.807Z,20.17
2022-09-24T16:36:52.563Z,20.08
2022-09-24T16:39:25.520Z,20.01
2022-09-24T16:41:58.360Z,19.94
2022-09-24T16:44:31.254Z,19.87
2022-09-24T16:47:05.580Z,19.82
2022-09-24T16:49:38.581Z,19.76
2022-09-24T16:52:11.429Z,19.69
2022-09-24T16:54:44.346Z,19.62
2022-09-24T16:57:17.208Z,19.55
2022-09-24T16:59:50.022Z,19.51
2022-09-24T17:02:24.452Z,19.46
2022-09-24T17:04:59.533Z,19.39
2022-09-24T17:07:34.548Z,19.33
2022-09-24T17:10:17.040Z,19.28
2022-09-24T17:12:51.415Z,19.24
2022-09-24T17:15:26.312Z,19.20
2022-09-24T17:18:00.480Z,19.13
2022-09-24T17:20:33.391Z,19.09
2022-09-24T17:23:06.522Z,19.06
2022-09-24T17:25:39.679Z,19.03
2022-09-24T17:28:12.455Z,18.97
2022-09-24T17:30:46.178Z,18.94
2022-09-24T17:33:42.199Z,18.90
2022-09-24T17:36:15.994Z,18.84
2022-09-24T17:38:48.992Z,18.78
2022-09-24T17:41:22.583Z,18.73
2022-09-24T17:43:58.726Z,18.67
2022-09-24T17:46:35.558Z,18.59
2022-09-24T17:49:11.289Z,18.52
2022-09-24T17:51:46.552Z,18.40
2022-09-24T17:54:23.276Z,18.31
2022-09-24T17:56:56.463Z,18.21
2022-09-24T17:59:29.612Z,18.12
2022-09-24T18:02:06.986Z,18.00
2022-09-24T18:04:41.514Z,17.89
2022-09-24T18:07:14.618Z,17.80
2022-09-24T18:09:48.146Z,17.69
2022-09-24T18:12:21.078Z,17.57
2022-09-24T18:14:54.373Z,17.47
2022-09-24T18:17:27.365Z,17.36
2022-09-24T18:20:01.561Z,17.28
2022-09-24T18:22:34.373Z,17.19
2022-09-24T18:25:08.285Z,17.11
2022-09-24T18:27:41.658Z,17.03
2022-09-24T18:30:15.681Z,16.96
2022-09-24T18:32:48.747Z,16.92
2022-09-24T18:35:22.982Z,16.86
2022-09-24T18:37:56.081Z,16.82
2022-09-24T18:40:29.408Z,16.79
2022-09-24T18:43:02.828Z,16.75
2022-09-24T18:45:36.160Z,16.73
2022-09-24T18:48:09.445Z,16.69
2022-09-24T18:50:46.280Z,16.67
2022-09-24T18:53:19.139Z,16.63
2022-09-24T18:55:52.362Z,16.62
2022-09-24T18:58:25.388Z,16.60
2022-09-24T19:00:59.957Z,16.59
2022-09-24T19:03:32.848Z,16.59
2022-09-24T19:06:08.527Z,16.60
2022-09-24T19:08:41.846Z,16.60
2022-09-24T19:11:17.539Z,16.61
2022-09-24T19:13:54.066Z,16.63
2022-09-24T19:16:27.386Z,16.65
2022-09-24T19:19:01.905Z,16.66
2022-09-24T19:21:36.697Z,16.71
2022-09-24T19:24:10.609Z,16.69
2022-09-24T19:26:44.842Z,16.72
2022-09-24T19:29:17.746Z,16.73
2022-09-24T19:31:51.900Z,16.75
2022-09-24T19:34:24.755Z,16.74
2022-09-24T19:36:59.065Z,16.76
2022-09-24T19:39:31.965Z,16.77
2022-09-24T19:42:04.966Z,16.78
2022-09-24T19:44:37.875Z,16.79
2022-09-24T19:47:10.996Z,16.80
2022-09-24T19:49:43.940Z,16.82
2022-09-24T19:52:18.129Z,16.84
2022-09-24T19:54:51.193Z,16.83
2022-09-24T19:57:23.996Z,16.84
2022-09-24T19:59:56.963Z,16.85
2022-09-24T20:02:31.174Z,16.85
2022-09-24T20:05:04.142Z,16.85
2022-09-24T20:07:38.496Z,16.86
2022-09-24T20:10:11.758Z,16.86
2022-09-24T20:12:46.697Z,16.86
2022-09-24T20:15:19.615Z,16.86
2022-09-24T20:17:53.670Z,16.85
2022-09-24T20:20:26.897Z,16.82
2022-09-24T20:23:01.809Z,16.82
2022-09-24T20:25:52.553Z,16.78
2022-09-24T20:28:25.497Z,16.76
2022-09-24T20:30:58.562Z,16.74
2022-09-24T20:33:31.445Z,16.71
2022-09-24T20:36:14.514Z,16.69
2022-09-24T20:38:49.548Z,16.67
2022-09-24T20:41:24.372Z,16.65
2022-09-24T20:43:57.178Z,16.63
2022-09-24T20:46:31.361Z,16.64
2022-09-24T20:49:06.406Z,16.62
2022-09-24T20:51:39.270Z,16.60
2022-09-24T20:54:14.785Z,16.60
2022-09-24T20:56:48.312Z,16.57
2022-09-24T20:59:21.246Z,16.55
2022-09-24T21:01:55.298Z,16.53
2022-09-24T21:04:28.236Z,16.50
2022-09-24T21:07:01.093Z,16.45
2022-09-24T21:09:35.379Z,16.43
2022-09-24T21:12:09.684Z,16.39
2022-09-24T21:14:42.456Z,16.33
2022-09-24T21:17:15.432Z,16.27
2022-09-24T21:19:48.629Z,16.21
2022-09-24T21:22:21.697Z,16.14
2022-09-24T21:24:55.927Z,16.08
2022-09-24T21:27:28.749Z,15.98
2022-09-24T21:30:01.534Z,15.90
2022-09-24T21:32:36.178Z,15.81
2022-09-24T21:35:09.726Z,15.74
2022-09-24T21:37:42.666Z,15.68
2022-09-24T21:40:19.327Z,15.62
2022-09-24T21:42:52.440Z,15.55
2022-09-24T21:45:26.637Z,15.48
2022-09-24T21:48:00.379Z,15.41
2022-09-24T21:50:38.167Z,15.33
2022-09-24T21:53:13.062Z,15.25
2022-09-24T21:55:49.163Z,15.22
2022-09-24T21:58:22.317Z,15.12
2022-09-24T22:00:55.228Z,15.06
2022-09-24T22:03:28.274Z,14.98
2022-09-24T22:06:03.632Z,14.93
2022-09-24T22:08:36.509Z,14.87
2022-09-24T22:11:12.675Z,14.82
2022-09-24T22:13:47.963Z,14.76
2022-09-24T22:16:23.223Z,14.69
2022-09-24T22:18:56.726Z,14.63
2022-09-24T22:21:29.546Z,14.61
2022-09-24T22:24:02.889Z,14.57
2022-09-24T22:26:37.286Z,14.54
2022-09-24T22:29:10.286Z,14.49
2022-09-24T22:31:44.869Z,14.46
2022-09-24T22:34:36.030Z,14.45
2022-09-24T22:37:08.894Z,14.40
2022-09-24T22:39:42.003Z,14.39
2022-09-24T22:42:16.182Z,14.37
2022-09-24T22:44:50.055Z,14.36
2022-09-24T22:47:23.071Z,14.34
2022-09-24T22:49:56.151Z,14.36
2022-09-24T22:52:29.849Z,14.39
2022-09-24T22:55:03.343Z,14.39
2022-09-24T22:57:37.994Z,14.45
2022-09-24T23:00:15.356Z,14.47
2022-09-24T23:02:48.707Z,14.50
2022-09-24T23:05:21.539Z,14.55
2022-09-24T23:07:54.430Z,14.58
2022-09-24T23:10:28.165Z,14.62
2022-09-24T23:13:02.581Z,14.67
2022-09-24T23:15:35.677Z,14.70
2022-09-24T23:18:08.513Z,14.76
2022-09-24T23:20:41.335Z,14.80
2022-09-24T23:23:14.106Z,14.85
2022-09-24T23:25:47.538Z,14.87
2022-09-24T23:28:21.751Z,14.94
2022-09-24T23:31:01.924Z,14.97
2022-09-24T23:33:35.860Z,14.98
2022-09-24T23:36:10.910Z,15.02
2022-09-24T23:38:43.957Z,15.05
2022-09-24T23:41:18.533Z,15.06
2022-09-24T23:43:53.287Z,15.13
2022-09-24T23:46:26.747Z,15.14
2022-09-24T23:48:59.596Z,15.15
2022-09-24T23:51:32.533Z,15.18
2022-09-24T23:54:05.887Z,15.20
2022-09-24T23:56:38.822Z,15.23
2022-09-24T23:59:14.123Z,15.27
